sensor_id;sensor_type;location;lat;lon;timestamp;temperature;humidity
23609;DHT22;11982;50.810;4.442;2023-01-15T00:01:24;7.90;99.90
23609;DHT22;11982;50.810;4.442;2023-01-15T00:03:51;7.90;99.90
23609;DHT22;11982;50.810;4.442;2023-01-15T00:06:19;7.90;99.90
23609;DHT22;11982;50.810;4.442;2023-01-15T00:08:46;7.80;99.90
23609;DHT22;11982;50.810;4.442;2023-01-15T00:11:14;7.80;99.90
23609;DHT22;11982;50.810;4.442;2023-01-15T00:13:40;7.80;99.90
23609;DHT22;11982;50.810;4.442;2023-01-15T00:16:08;7.90;99.90
23609;DHT22;11982;50.810;4.442;2023-01-15T00:18:34;8.00;99.90
23609;DHT22;11982;50.810;4.442;2023-01-15T00:21:05;8.00;99.90
23609;DHT22;11982;50.810;4.442;2023-01-15T00:23:34;8.00;99.90
23609;DHT22;11982;50.810;4.442;2023-01-15T00:26:27;8.00;99.90
23609;DHT22;11982;50.810;4.442;2023-01-15T00:29:12;8.00;99.90
23609;DHT22;11982;50.810;4.442;2023-01-15T00:31:38;8.10;99.90
23609;DHT22;11982;50.810;4.442;2023-01-15T00:34:04;8.00;99.90
23609;DHT22;11982;50.810;4.442;2023-01-15T00:36:29;8.10;99.90
23609;DHT22;11982;50.810;4.442;2023-01-15T00:38:55;8.10;99.90
23609;DHT22;11982;50.810;4.442;2023-01-15T00:41:21;8.10;99.90
23609;DHT22;11982;50.810;4.442;2023-01-15T00:43:47;8.10;99.90
23609;DHT22;11982;50.810;4.442;2023-01-15T00:46:13;8.10;99.90
23609;DHT22;11982;50.810;4.442;2023-01-15T00:48:39;8.10;99.90
23609;DHT22;11982;50.810;4.442;2023-01-15T00:51:05;8.00;99.90
23609;DHT22;11982;50.810;4.442;2023-01-15T00:53:32;8.00;99.90
23609;DHT22;11982;50.810;4.442;2023-01-15T00:55:58;8.10;99.90
23609;DHT22;11982;50.810;4.442;2023-01-15T00:58:24;8.00;99.90
23609;DHT22;11982;50.810;4.442;2023-01-15T01:00:58;8.00;99.90
23609;DHT22;11982;50.810;4.442;2023-01-15T01:03:25;8.00;99.90
23609;DHT22;11982;50.810;4.442;2023-01-15T01:05:51;8.00;99.90
23609;DHT22;11982;50.810;4.442;2023-01-15T01:08:17;8.00;99.90
23609;DHT22;11982;50.810;4.442;2023-01-15T01:10:43;8.00;99.90
23609;DHT22;11982;50.810;4.442;2023-01-15T01:13:09;8.00;99.90
23609;DHT22;11982;50.810;4.442;2023-01-15T01:15:36;8.00;99.90
23609;DHT22;11982;50.810;4.442;2023-01-15T01:18:03;7.90;99.90
23609;DHT22;11982;50.810;4.442;2023-01-15T01:20:30;8.00;99.90
23609;DHT22;11982;50.810;4.442;2023-01-15T01:22:56;7.90;99.90
23609;DHT22;11982;50.810;4.442;2023-01-15T01:25:22;7.90;99.90
23609;DHT22;11982;50.810;4.442;2023-01-15T01:27:48;7.90;99.90
23609;DHT22;11982;50.810;4.442;2023-01-15T01:30:14;7.90;99.90
23609;DHT22;11982;50.810;4.442;2023-01-15T01:32:43;7.80;99.90
23609;DHT22;11982;50.810;4.442;2023-01-15T01:35:09;7.80;99.90
23609;DHT22;11982;50.810;4.442;2023-01-15T01:37:35;7.80;99.90
23609;DHT22;11982;50.810;4.442;2023-01-15T01:40:01;7.70;99.90
23609;DHT22;11982;50.810;4.442;2023-01-15T01:42:27;7.70;99.90
23609;DHT22;11982;50.810;4.442;2023-01-15T01:45:17;7.60;99.90
23609;DHT22;11982;50.810;4.442;2023-01-15T01:47:44;7.60;99.90
23609;DHT22;11982;50.810;4.442;2023-01-15T01:50:12;7.60;99.90
23609;DHT22;11982;50.810;4.442;2023-01-15T01:52:45;7.60;99.90
23609;DHT22;11982;50.810;4.442;2023-01-15T01:55:15;7.60;99.90
23609;DHT22;11982;50.810;4.442;2023-01-15T01:57:43;7.60;99.90
23609;DHT22;11982;50.810;4.442;2023-01-15T02:00:10;7.60;99.90
23609;DHT22;11982;50.810;4.442;2023-01-15T02:02:38;7.50;99.90
23609;DHT22;11982;50.810;4.442;2023-01-15T02:05:06;7.50;99.90
23609;DHT22;11982;50.810;4.442;2023-01-15T02:07:33;7.50;99.90
23609;DHT22;11982;50.810;4.442;2023-01-15T02:09:59;7.50;99.90
23609;DHT22;11982;50.810;4.442;2023-01-15T02:12:33;7.50;99.90
23609;DHT22;11982;50.810;4.442;2023-01-15T02:15:22;7.50;99.90
23609;DHT22;11982;50.810;4.442;2023-01-15T02:20:41;7.40;99.90
23609;DHT22;11982;50.810;4.442;2023-01-15T02:29:04;7.30;99.90
23609;DHT22;11982;50.810;4.442;2023-01-15T02:31:36;7.30;99.90
23609;DHT22;11982;50.810;4.442;2023-01-15T02:34:16;7.20;99.90
23609;DHT22;11982;50.810;4.442;2023-01-15T02:36:46;7.30;99.90
23609;DHT22;11982;50.810;4.442;2023-01-15T02:39:16;7.20;99.90
23609;DHT22;11982;50.810;4.442;2023-01-15T02:41:46;7.20;99.90
23609;DHT22;11982;50.810;4.442;2023-01-15T02:44:15;7.20;99.90
23609;DHT22;11982;50.810;4.442;2023-01-15T02:46:43;7.20;99.90
23609;DHT22;11982;50.810;4.442;2023-01-15T02:49:12;7.20;99.90
23609;DHT22;11982;50.810;4.442;2023-01-15T02:51:43;7.20;99.90
23609;DHT22;11982;50.810;4.442;2023-01-15T02:54:13;7.20;99.90
23609;DHT22;11982;50.810;4.442;2023-01-15T02:56:42;7.10;99.90
23609;DHT22;11982;50.810;4.442;2023-01-15T02:59:13;7.10;99.90
23609;DHT22;11982;50.810;4.442;2023-01-15T03:01:45;7.10;99.90
23609;DHT22;11982;50.810;4.442;2023-01-15T03:04:21;7.00;99.90
23609;DHT22;11982;50.810;4.442;2023-01-15T03:09:23;7.00;99.90
23609;DHT22;11982;50.810;4.442;2023-01-15T03:12:10;7.00;99.90
23609;DHT22;11982;50.810;4.442;2023-01-15T03:14:49;7.00;99.90
23609;DHT22;11982;50.810;4.442;2023-01-15T03:17:39;7.10;99.90
23609;DHT22;11982;50.810;4.442;2023-01-15T03:20:12;7.10;99.90
23609;DHT22;11982;50.810;4.442;2023-01-15T03:22:43;7.10;99.90
23609;DHT22;11982;50.810;4.442;2023-01-15T03:25:19;7.10;99.90
23609;DHT22;11982;50.810;4.442;2023-01-15T03:27:46;7.10;99.90
23609;DHT22;11982;50.810;4.442;2023-01-15T03:30:19;7.10;99.90
23609;DHT22;11982;50.810;4.442;2023-01-15T03:32:46;7.00;99.90
23609;DHT22;11982;50.810;4.442;2023-01-15T03:38:09;7.00;99.90
23609;DHT22;11982;50.810;4.442;2023-01-15T03:40:37;7.00;99.90
23609;DHT22;11982;50.810;4.442;2023-01-15T03:43:08;7.00;99.90
23609;DHT22;11982;50.810;4.442;2023-01-15T03:45:59;7.00;99.90
23609;DHT22;11982;50.810;4.442;2023-01-15T03:48:41;6.90;99.90
23609;DHT22;11982;50.810;4.442;2023-01-15T03:51:17;6.90;99.90
23609;DHT22;11982;50.810;4.442;2023-01-15T03:53:49;6.90;99.90
23609;DHT22;11982;50.810;4.442;2023-01-15T03:56:32;6.90;99.90
23609;DHT22;11982;50.810;4.442;2023-01-15T04:01:37;6.80;99.90
23609;DHT22;11982;50.810;4.442;2023-01-15T04:04:04;6.80;99.90
23609;DHT22;11982;50.810;4.442;2023-01-15T04:06:33;6.80;99.90
23609;DHT22;11982;50.810;4.442;2023-01-15T04:09:02;6.80;99.90
23609;DHT22;11982;50.810;4.442;2023-01-15T04:11:29;6.70;99.90
23609;DHT22;11982;50.810;4.442;2023-01-15T04:13:54;6.70;99.90
23609;DHT22;11982;50.810;4.442;2023-01-15T04:16:25;6.70;99.90
23609;DHT22;11982;50.810;4.442;2023-01-15T04:18:52;6.70;99.90
23609;DHT22;11982;50.810;4.442;2023-01-15T04:21:18;6.70;99.90
23609;DHT22;11982;50.810;4.442;2023-01-15T04:23:43;6.60;99.90
23609;DHT22;11982;50.810;4.442;2023-01-15T04:26:10;6.70;99.90
23609;DHT22;11982;50.810;4.442;2023-01-15T04:28:36;6.70;99.90
23609;DHT22;11982;50.810;4.442;2023-01-15T04:31:02;6.70;99.90
23609;DHT22;11982;50.810;4.442;2023-01-15T04:33:28;6.70;99.90
23609;DHT22;11982;50.810;4.442;2023-01-15T04:35:53;6.70;99.90
23609;DHT22;11982;50.810;4.442;2023-01-15T04:38:19;6.70;99.90
23609;DHT22;11982;50.810;4.442;2023-01-15T04:40:45;6.70;99.90
23609;DHT22;11982;50.810;4.442;2023-01-15T04:43:29;6.70;99.90
23609;DHT22;11982;50.810;4.442;2023-01-15T04:46:13;6.60;99.90
23609;DHT22;11982;50.810;4.442;2023-01-15T04:48:39;6.60;99.90
23609;DHT22;11982;50.810;4.442;2023-01-15T04:51:05;6.70;99.90
23609;DHT22;11982;50.810;4.442;2023-01-15T04:53:32;6.60;99.90
23609;DHT22;11982;50.810;4.442;2023-01-15T04:56:02;6.60;99.90
23609;DHT22;11982;50.810;4.442;2023-01-15T04:58:29;6.60;99.90
23609;DHT22;11982;50.810;4.442;2023-01-15T05:00:55;6.60;99.90
23609;DHT22;11982;50.810;4.442;2023-01-15T05:03:21;6.50;99.90
23609;DHT22;11982;50.810;4.442;2023-01-15T05:05:46;6.50;99.90
23609;DHT22;11982;50.810;4.442;2023-01-15T05:08:12;6.50;99.90
23609;DHT22;11982;50.810;4.442;2023-01-15T05:10:38;6.50;99.90
23609;DHT22;11982;50.810;4.442;2023-01-15T05:13:03;6.50;99.90
23609;DHT22;11982;50.810;4.442;2023-01-15T05:15:29;6.40;99.90
23609;DHT22;11982;50.810;4.442;2023-01-15T05:17:55;6.40;99.90
23609;DHT22;11982;50.810;4.442;2023-01-15T05:20:21;6.40;99.90
23609;DHT22;11982;50.810;4.442;2023-01-15T05:22:46;6.40;99.90
23609;DHT22;11982;50.810;4.442;2023-01-15T05:25:12;6.40;99.90
23609;DHT22;11982;50.810;4.442;2023-01-15T05:27:38;6.40;99.90
23609;DHT22;11982;50.810;4.442;2023-01-15T05:30:04;6.40;99.90
23609;DHT22;11982;50.810;4.442;2023-01-15T05:32:30;6.40;99.90
23609;DHT22;11982;50.810;4.442;2023-01-15T05:34:55;6.40;99.90
23609;DHT22;11982;50.810;4.442;2023-01-15T05:37:21;6.40;99.90
23609;DHT22;11982;50.810;4.442;2023-01-15T05:39:47;6.30;99.90
23609;DHT22;11982;50.810;4.442;2023-01-15T05:42:12;6.20;99.90
23609;DHT22;11982;50.810;4.442;2023-01-15T05:44:38;6.20;99.90
23609;DHT22;11982;50.810;4.442;2023-01-15T05:47:04;6.20;99.90
23609;DHT22;11982;50.810;4.442;2023-01-15T05:49:32;6.20;99.90
23609;DHT22;11982;50.810;4.442;2023-01-15T05:51:59;6.20;99.90
23609;DHT22;11982;50.810;4.442;2023-01-15T05:54:28;6.30;99.90
23609;DHT22;11982;50.810;4.442;2023-01-15T05:56:54;6.20;99.90
23609;DHT22;11982;50.810;4.442;2023-01-15T05:59:23;6.20;99.90
23609;DHT22;11982;50.810;4.442;2023-01-15T06:01:48;6.10;99.90
23609;DHT22;11982;50.810;4.442;2023-01-15T06:04:14;5.90;99.90
23609;DHT22;11982;50.810;4.442;2023-01-15T06:06:42;5.90;99.90
23609;DHT22;11982;50.810;4.442;2023-01-15T06:09:08;5.80;99.90
23609;DHT22;11982;50.810;4.442;2023-01-15T06:11:34;5.80;99.90
23609;DHT22;11982;50.810;4.442;2023-01-15T06:14:00;5.70;99.90
23609;DHT22;11982;50.810;4.442;2023-01-15T06:16:25;5.60;99.90
23609;DHT22;11982;50.810;4.442;2023-01-15T06:18:51;5.40;99.90
23609;DHT22;11982;50.810;4.442;2023-01-15T06:21:17;5.30;99.90
23609;DHT22;11982;50.810;4.442;2023-01-15T06:23:43;5.10;99.90
23609;DHT22;11982;50.810;4.442;2023-01-15T06:26:16;5.00;99.90
23609;DHT22;11982;50.810;4.442;2023-01-15T06:28:43;4.90;99.90
23609;DHT22;11982;50.810;4.442;2023-01-15T06:31:11;4.90;99.90
23609;DHT22;11982;50.810;4.442;2023-01-15T06:33:37;4.90;99.90
23609;DHT22;11982;50.810;4.442;2023-01-15T06:36:09;4.90;99.90
23609;DHT22;11982;50.810;4.442;2023-01-15T06:38:36;4.90;99.90
23609;DHT22;11982;50.810;4.442;2023-01-15T06:41:05;4.90;99.90
23609;DHT22;11982;50.810;4.442;2023-01-15T06:43:53;5.00;99.90
23609;DHT22;11982;50.810;4.442;2023-01-15T06:46:43;5.10;99.90
23609;DHT22;11982;50.810;4.442;2023-01-15T06:49:28;5.10;99.90
23609;DHT22;11982;50.810;4.442;2023-01-15T06:51:53;5.20;99.90
23609;DHT22;11982;50.810;4.442;2023-01-15T06:54:19;5.20;99.90
23609;DHT22;11982;50.810;4.442;2023-01-15T06:56:45;5.20;99.90
23609;DHT22;11982;50.810;4.442;2023-01-15T06:59:10;5.20;99.90
23609;DHT22;11982;50.810;4.442;2023-01-15T07:01:36;5.20;99.90
23609;DHT22;11982;50.810;4.442;2023-01-15T07:04:02;5.20;99.90
23609;DHT22;11982;50.810;4.442;2023-01-15T07:06:28;5.20;99.90
23609;DHT22;11982;50.810;4.442;2023-01-15T07:08:54;5.20;99.90
23609;DHT22;11982;50.810;4.442;2023-01-15T07:11:19;5.20;99.90
23609;DHT22;11982;50.810;4.442;2023-01-15T07:13:45;5.20;99.90
23609;DHT22;11982;50.810;4.442;2023-01-15T07:16:11;5.10;99.90
23609;DHT22;11982;50.810;4.442;2023-01-15T07:18:55;5.10;99.90
23609;DHT22;11982;50.810;4.442;2023-01-15T07:21:21;5.10;99.90
23609;DHT22;11982;50.810;4.442;2023-01-15T07:23:47;5.10;99.90
23609;DHT22;11982;50.810;4.442;2023-01-15T07:26:13;5.00;99.90
23609;DHT22;11982;50.810;4.442;2023-01-15T07:28:38;5.00;99.90
23609;DHT22;11982;50.810;4.442;2023-01-15T07:31:04;5.10;99.90
23609;DHT22;11982;50.810;4.442;2023-01-15T07:33:30;5.10;99.90
23609;DHT22;11982;50.810;4.442;2023-01-15T07:35:56;5.00;99.90
23609;DHT22;11982;50.810;4.442;2023-01-15T07:38:22;5.10;99.90
23609;DHT22;11982;50.810;4.442;2023-01-15T07:40:48;5.10;99.90
23609;DHT22;11982;50.810;4.442;2023-01-15T07:43:33;5.10;99.90
23609;DHT22;11982;50.810;4.442;2023-01-15T07:46:20;5.10;99.90
23609;DHT22;11982;50.810;4.442;2023-01-15T07:49:08;5.00;99.90
23609;DHT22;11982;50.810;4.442;2023-01-15T07:51:53;5.00;99.90
23609;DHT22;11982;50.810;4.442;2023-01-15T07:54:19;5.00;99.90
23609;DHT22;11982;50.810;4.442;2023-01-15T07:56:44;5.00;99.90
23609;DHT22;11982;50.810;4.442;2023-01-15T07:59:10;5.00;99.90
23609;DHT22;11982;50.810;4.442;2023-01-15T08:01:36;5.10;99.90
23609;DHT22;11982;50.810;4.442;2023-01-15T08:04:02;5.10;99.90
23609;DHT22;11982;50.810;4.442;2023-01-15T08:06:28;5.10;99.90
23609;DHT22;11982;50.810;4.442;2023-01-15T08:08:53;5.10;99.90
23609;DHT22;11982;50.810;4.442;2023-01-15T08:11:19;5.10;99.90
23609;DHT22;11982;50.810;4.442;2023-01-15T08:14:03;5.10;99.90
23609;DHT22;11982;50.810;4.442;2023-01-15T08:16:47;5.10;99.90
23609;DHT22;11982;50.810;4.442;2023-01-15T08:19:13;5.00;99.90
23609;DHT22;11982;50.810;4.442;2023-01-15T08:21:38;5.00;99.90
23609;DHT22;11982;50.810;4.442;2023-01-15T08:24:04;5.00;99.90
23609;DHT22;11982;50.810;4.442;2023-01-15T08:26:30;5.00;99.90
23609;DHT22;11982;50.810;4.442;2023-01-15T08:28:56;5.10;99.90
23609;DHT22;11982;50.810;4.442;2023-01-15T08:31:21;5.10;99.90
23609;DHT22;11982;50.810;4.442;2023-01-15T08:33:47;5.00;99.90
23609;DHT22;11982;50.810;4.442;2023-01-15T08:36:13;5.10;99.90
23609;DHT22;11982;50.810;4.442;2023-01-15T08:38:40;5.10;99.90
23609;DHT22;11982;50.810;4.442;2023-01-15T08:41:06;5.10;99.90
23609;DHT22;11982;50.810;4.442;2023-01-15T08:43:31;5.20;99.90
23609;DHT22;11982;50.810;4.442;2023-01-15T08:45:59;5.20;99.90
23609;DHT22;11982;50.810;4.442;2023-01-15T08:48:26;5.30;99.90
23609;DHT22;11982;50.810;4.442;2023-01-15T08:50:52;5.30;99.90
23609;DHT22;11982;50.810;4.442;2023-01-15T08:53:19;5.30;99.90
23609;DHT22;11982;50.810;4.442;2023-01-15T08:55:46;5.30;99.90
23609;DHT22;11982;50.810;4.442;2023-01-15T08:58:12;5.30;99.90
23609;DHT22;11982;50.810;4.442;2023-01-15T09:00:38;5.40;99.90
23609;DHT22;11982;50.810;4.442;2023-01-15T09:03:03;5.30;99.90
23609;DHT22;11982;50.810;4.442;2023-01-15T09:05:29;5.50;99.90
23609;DHT22;11982;50.810;4.442;2023-01-15T09:07:55;5.50;99.90
23609;DHT22;11982;50.810;4.442;2023-01-15T09:10:21;5.50;99.90
23609;DHT22;11982;50.810;4.442;2023-01-15T09:12:47;5.50;99.90
23609;DHT22;11982;50.810;4.442;2023-01-15T09:15:13;5.60;99.90
23609;DHT22;11982;50.810;4.442;2023-01-15T09:17:39;5.60;99.90
23609;DHT22;11982;50.810;4.442;2023-01-15T09:20:10;5.60;99.90
23609;DHT22;11982;50.810;4.442;2023-01-15T09:22:36;5.60;99.90
23609;DHT22;11982;50.810;4.442;2023-01-15T09:25:03;5.70;99.90
23609;DHT22;11982;50.810;4.442;2023-01-15T09:27:29;5.60;99.90
23609;DHT22;11982;50.810;4.442;2023-01-15T09:29:55;5.60;99.90
23609;DHT22;11982;50.810;4.442;2023-01-15T09:32:21;5.70;99.90
23609;DHT22;11982;50.810;4.442;2023-01-15T09:34:47;5.70;99.90
23609;DHT22;11982;50.810;4.442;2023-01-15T09:37:13;5.70;99.90
23609;DHT22;11982;50.810;4.442;2023-01-15T09:39:38;5.70;99.90
23609;DHT22;11982;50.810;4.442;2023-01-15T09:45:17;5.80;99.90
23609;DHT22;11982;50.810;4.442;2023-01-15T09:50:38;5.70;99.90
23609;DHT22;11982;50.810;4.442;2023-01-15T09:55:49;5.70;99.90
23609;DHT22;11982;50.810;4.442;2023-01-15T09:58:20;5.80;99.90
23609;DHT22;11982;50.810;4.442;2023-01-15T10:00:49;5.70;99.90
23609;DHT22;11982;50.810;4.442;2023-01-15T10:03:39;5.80;99.90
23609;DHT22;11982;50.810;4.442;2023-01-15T10:06:26;5.80;99.90
23609;DHT22;11982;50.810;4.442;2023-01-15T10:09:07;5.90;99.90
23609;DHT22;11982;50.810;4.442;2023-01-15T10:11:39;5.90;99.90
23609;DHT22;11982;50.810;4.442;2023-01-15T10:16:57;5.80;99.90
23609;DHT22;11982;50.810;4.442;2023-01-15T10:19:22;5.90;99.90
23609;DHT22;11982;50.810;4.442;2023-01-15T10:22:02;5.80;99.90
23609;DHT22;11982;50.810;4.442;2023-01-15T10:24:38;5.80;99.90
23609;DHT22;11982;50.810;4.442;2023-01-15T10:27:35;5.80;99.90
23609;DHT22;11982;50.810;4.442;2023-01-15T10:30:14;5.80;99.90
23609;DHT22;11982;50.810;4.442;2023-01-15T10:32:50;5.70;99.90
23609;DHT22;11982;50.810;4.442;2023-01-15T10:35:44;5.70;99.90
23609;DHT22;11982;50.810;4.442;2023-01-15T10:45:57;5.60;99.90
23609;DHT22;11982;50.810;4.442;2023-01-15T10:48:39;5.60;99.90
23609;DHT22;11982;50.810;4.442;2023-01-15T10:51:20;5.60;99.90
23609;DHT22;11982;50.810;4.442;2023-01-15T10:53:54;5.70;99.90
23609;DHT22;11982;50.810;4.442;2023-01-15T10:56:40;5.70;99.90
23609;DHT22;11982;50.810;4.442;2023-01-15T11:01:36;6.00;99.90
23609;DHT22;11982;50.810;4.442;2023-01-15T11:04:03;6.20;99.90
23609;DHT22;11982;50.810;4.442;2023-01-15T11:06:30;6.20;99.90
23609;DHT22;11982;50.810;4.442;2023-01-15T11:08:57;6.20;99.90
23609;DHT22;11982;50.810;4.442;2023-01-15T11:11:35;6.40;99.90
23609;DHT22;11982;50.810;4.442;2023-01-15T11:14:37;6.50;99.90
23609;DHT22;11982;50.810;4.442;2023-01-15T11:17:24;6.50;99.90
23609;DHT22;11982;50.810;4.442;2023-01-15T11:22:43;6.70;99.90
23609;DHT22;11982;50.810;4.442;2023-01-15T11:25:08;6.70;99.90
23609;DHT22;11982;50.810;4.442;2023-01-15T11:27:36;6.60;99.90
23609;DHT22;11982;50.810;4.442;2023-01-15T11:30:04;6.60;99.90
23609;DHT22;11982;50.810;4.442;2023-01-15T11:34:58;6.50;99.90
23609;DHT22;11982;50.810;4.442;2023-01-15T11:37:25;6.50;99.90
23609;DHT22;11982;50.810;4.442;2023-01-15T11:40:01;6.60;99.90
23609;DHT22;11982;50.810;4.442;2023-01-15T11:42:31;6.60;99.90
23609;DHT22;11982;50.810;4.442;2023-01-15T11:45:18;6.70;99.90
23609;DHT22;11982;50.810;4.442;2023-01-15T11:48:17;6.80;99.90
23609;DHT22;11982;50.810;4.442;2023-01-15T11:51:11;6.90;99.90
23609;DHT22;11982;50.810;4.442;2023-01-15T11:53:44;7.00;99.90
23609;DHT22;11982;50.810;4.442;2023-01-15T11:56:19;6.90;99.90
23609;DHT22;11982;50.810;4.442;2023-01-15T11:58:49;7.00;99.90
23609;DHT22;11982;50.810;4.442;2023-01-15T12:01:37;7.00;99.90
23609;DHT22;11982;50.810;4.442;2023-01-15T12:07:01;7.00;99.90
23609;DHT22;11982;50.810;4.442;2023-01-15T12:12:17;6.90;99.90
23609;DHT22;11982;50.810;4.442;2023-01-15T12:28:11;7.10;99.90
23609;DHT22;11982;50.810;4.442;2023-01-15T12:33:53;7.10;99.90
23609;DHT22;11982;50.810;4.442;2023-01-15T12:36:25;7.00;99.90
23609;DHT22;11982;50.810;4.442;2023-01-15T12:38:59;6.90;99.90
23609;DHT22;11982;50.810;4.442;2023-01-15T12:41:32;6.90;99.90
23609;DHT22;11982;50.810;4.442;2023-01-15T12:44:45;6.90;99.90
23609;DHT22;11982;50.810;4.442;2023-01-15T12:53:22;7.10;99.90
23609;DHT22;11982;50.810;4.442;2023-01-15T12:56:11;7.10;99.90
23609;DHT22;11982;50.810;4.442;2023-01-15T13:04:52;7.10;99.90
23609;DHT22;11982;50.810;4.442;2023-01-15T13:07:38;7.20;99.90
23609;DHT22;11982;50.810;4.442;2023-01-15T13:10:16;7.30;99.90
23609;DHT22;11982;50.810;4.442;2023-01-15T13:12:43;7.30;99.90
23609;DHT22;11982;50.810;4.442;2023-01-15T13:15:14;7.20;99.90
23609;DHT22;11982;50.810;4.442;2023-01-15T13:20:32;7.20;99.90
23609;DHT22;11982;50.810;4.442;2023-01-15T13:23:15;7.10;99.90
23609;DHT22;11982;50.810;4.442;2023-01-15T13:28:58;7.10;99.90
23609;DHT22;11982;50.810;4.442;2023-01-15T13:34:02;7.00;99.90
23609;DHT22;11982;50.810;4.442;2023-01-15T13:36:42;7.00;99.90
23609;DHT22;11982;50.810;4.442;2023-01-15T13:39:19;7.00;99.90
23609;DHT22;11982;50.810;4.442;2023-01-15T13:41:51;7.00;99.90
23609;DHT22;11982;50.810;4.442;2023-01-15T13:44:43;7.10;99.90
23609;DHT22;11982;50.810;4.442;2023-01-15T13:47:12;7.10;99.90
23609;DHT22;11982;50.810;4.442;2023-01-15T13:49:48;6.90;99.90
23609;DHT22;11982;50.810;4.442;2023-01-15T13:52:35;6.90;99.90
23609;DHT22;11982;50.810;4.442;2023-01-15T13:57:38;6.70;99.90
23609;DHT22;11982;50.810;4.442;2023-01-15T14:02:56;6.70;99.90
23609;DHT22;11982;50.810;4.442;2023-01-15T14:07:47;6.50;99.90
23609;DHT22;11982;50.810;4.442;2023-01-15T14:15:47;6.10;99.90
23609;DHT22;11982;50.810;4.442;2023-01-15T14:21:23;6.00;99.90
23609;DHT22;11982;50.810;4.442;2023-01-15T14:24:35;6.00;99.90
23609;DHT22;11982;50.810;4.442;2023-01-15T14:27:22;6.00;99.90
23609;DHT22;11982;50.810;4.442;2023-01-15T14:32:59;6.00;99.90
23609;DHT22;11982;50.810;4.442;2023-01-15T14:35:36;6.10;99.90
23609;DHT22;11982;50.810;4.442;2023-01-15T14:38:07;6.10;99.90
23609;DHT22;11982;50.810;4.442;2023-01-15T14:40:47;6.10;99.90
23609;DHT22;11982;50.810;4.442;2023-01-15T14:43:19;6.10;99.90
23609;DHT22;11982;50.810;4.442;2023-01-15T14:45:46;6.20;99.90
23609;DHT22;11982;50.810;4.442;2023-01-15T14:50:47;6.20;99.90
23609;DHT22;11982;50.810;4.442;2023-01-15T14:53:25;6.30;99.90
23609;DHT22;11982;50.810;4.442;2023-01-15T14:56:06;6.30;99.90
23609;DHT22;11982;50.810;4.442;2023-01-15T15:01:51;6.20;99.90
23609;DHT22;11982;50.810;4.442;2023-01-15T15:04:44;6.20;99.90
23609;DHT22;11982;50.810;4.442;2023-01-15T15:07:15;6.20;99.90
23609;DHT22;11982;50.810;4.442;2023-01-15T15:15:46;6.10;99.90
23609;DHT22;11982;50.810;4.442;2023-01-15T15:21:22;6.10;99.90
23609;DHT22;11982;50.810;4.442;2023-01-15T15:26:53;6.00;99.90
23609;DHT22;11982;50.810;4.442;2023-01-15T15:29:20;6.00;99.90
23609;DHT22;11982;50.810;4.442;2023-01-15T15:31:55;5.90;99.90
23609;DHT22;11982;50.810;4.442;2023-01-15T15:34:26;6.00;99.90
23609;DHT22;11982;50.810;4.442;2023-01-15T15:36:54;5.90;99.90
23609;DHT22;11982;50.810;4.442;2023-01-15T15:42:27;5.90;99.90
23609;DHT22;11982;50.810;4.442;2023-01-15T15:45:19;5.90;99.90
23609;DHT22;11982;50.810;4.442;2023-01-15T15:51:01;5.90;99.90
23609;DHT22;11982;50.810;4.442;2023-01-15T15:53:28;5.90;99.90
23609;DHT22;11982;50.810;4.442;2023-01-15T15:55:55;5.90;99.90
23609;DHT22;11982;50.810;4.442;2023-01-15T15:58:30;5.90;99.90
23609;DHT22;11982;50.810;4.442;2023-01-15T16:00:56;5.90;99.90
23609;DHT22;11982;50.810;4.442;2023-01-15T16:03:24;5.90;99.90
23609;DHT22;11982;50.810;4.442;2023-01-15T16:06:06;5.90;99.90
23609;DHT22;11982;50.810;4.442;2023-01-15T16:08:34;5.80;99.90
23609;DHT22;11982;50.810;4.442;2023-01-15T16:11:09;5.70;99.90
23609;DHT22;11982;50.810;4.442;2023-01-15T16:13:43;5.70;99.90
23609;DHT22;11982;50.810;4.442;2023-01-15T16:16:11;5.60;99.90
23609;DHT22;11982;50.810;4.442;2023-01-15T16:18:41;5.60;99.90
23609;DHT22;11982;50.810;4.442;2023-01-15T16:21:09;5.50;99.90
23609;DHT22;11982;50.810;4.442;2023-01-15T16:23:36;5.50;99.90
23609;DHT22;11982;50.810;4.442;2023-01-15T16:28:39;5.50;99.90
23609;DHT22;11982;50.810;4.442;2023-01-15T16:31:08;5.50;99.90
23609;DHT22;11982;50.810;4.442;2023-01-15T16:33:36;5.40;99.90
23609;DHT22;11982;50.810;4.442;2023-01-15T16:36:03;5.40;99.90
23609;DHT22;11982;50.810;4.442;2023-01-15T16:38:37;5.40;99.90
23609;DHT22;11982;50.810;4.442;2023-01-15T16:41:03;5.40;99.90
23609;DHT22;11982;50.810;4.442;2023-01-15T16:43:29;5.50;99.90
23609;DHT22;11982;50.810;4.442;2023-01-15T16:46:05;5.40;99.90
23609;DHT22;11982;50.810;4.442;2023-01-15T16:48:33;5.50;99.90
23609;DHT22;11982;50.810;4.442;2023-01-15T16:51:34;5.40;99.90
23609;DHT22;11982;50.810;4.442;2023-01-15T16:54:04;5.50;99.90
23609;DHT22;11982;50.810;4.442;2023-01-15T16:59:03;5.50;99.90
23609;DHT22;11982;50.810;4.442;2023-01-15T17:01:45;5.50;99.90
23609;DHT22;11982;50.810;4.442;2023-01-15T17:07:05;5.50;99.90
23609;DHT22;11982;50.810;4.442;2023-01-15T17:09:34;5.50;99.90
23609;DHT22;11982;50.810;4.442;2023-01-15T17:12:13;5.50;99.90
23609;DHT22;11982;50.810;4.442;2023-01-15T17:14:43;5.50;99.90
23609;DHT22;11982;50.810;4.442;2023-01-15T17:17:34;5.50;99.90
23609;DHT22;11982;50.810;4.442;2023-01-15T17:20:00;5.50;99.90
23609;DHT22;11982;50.810;4.442;2023-01-15T17:22:28;5.50;99.90
23609;DHT22;11982;50.810;4.442;2023-01-15T17:24:56;5.50;99.90
23609;DHT22;11982;50.810;4.442;2023-01-15T17:27:23;5.50;99.90
23609;DHT22;11982;50.810;4.442;2023-01-15T17:29:49;5.50;99.90
23609;DHT22;11982;50.810;4.442;2023-01-15T17:32:25;5.40;99.90
23609;DHT22;11982;50.810;4.442;2023-01-15T17:34:52;5.30;99.90
23609;DHT22;11982;50.810;4.442;2023-01-15T17:37:18;5.30;99.90
23609;DHT22;11982;50.810;4.442;2023-01-15T17:39:44;5.40;99.90
23609;DHT22;11982;50.810;4.442;2023-01-15T17:42:17;5.40;99.90
23609;DHT22;11982;50.810;4.442;2023-01-15T17:44:45;5.40;99.90
23609;DHT22;11982;50.810;4.442;2023-01-15T17:47:11;5.30;99.90
23609;DHT22;11982;50.810;4.442;2023-01-15T17:49:37;5.30;99.90
23609;DHT22;11982;50.810;4.442;2023-01-15T17:52:10;5.30;99.90
23609;DHT22;11982;50.810;4.442;2023-01-15T17:54:36;5.40;99.90
23609;DHT22;11982;50.810;4.442;2023-01-15T17:57:40;5.40;99.90
23609;DHT22;11982;50.810;4.442;2023-01-15T18:00:24;5.40;99.90
23609;DHT22;11982;50.810;4.442;2023-01-15T18:03:14;5.50;99.90
23609;DHT22;11982;50.810;4.442;2023-01-15T18:05:59;5.50;99.90
23609;DHT22;11982;50.810;4.442;2023-01-15T18:08:25;5.60;99.90
23609;DHT22;11982;50.810;4.442;2023-01-15T18:10:50;5.70;99.90
23609;DHT22;11982;50.810;4.442;2023-01-15T18:13:16;5.70;99.90
23609;DHT22;11982;50.810;4.442;2023-01-15T18:15:42;5.80;99.90
23609;DHT22;11982;50.810;4.442;2023-01-15T18:18:07;5.80;99.90
23609;DHT22;11982;50.810;4.442;2023-01-15T18:20:34;5.90;99.90
23609;DHT22;11982;50.810;4.442;2023-01-15T18:22:59;6.00;99.90
23609;DHT22;11982;50.810;4.442;2023-01-15T18:25:25;6.00;99.90
23609;DHT22;11982;50.810;4.442;2023-01-15T18:27:51;5.90;99.90